sensor_id;sensor_type;location;lat;lon;timestamp;pressure;altitude;pressure_sealevel;temperature;humidity
57374;BME280;43964;53.890;25.340;2023-03-23T00:04:08;1016.8;;;11.8;54.3
57374;BME280;43964;53.890;25.340;2023-03-23T00:08:53;1016.8;;;11.8;54.3
57374;BME280;43964;53.890;25.340;2023-03-23T00:14:18;1016.9;;;11.8;54.3
57374;BME280;43964;53.890;25.340;2023-03-23T00:19:07;1016.8;;;11.8;54.3
57374;BME280;43964;53.890;25.340;2023-03-23T00:24:30;1016.8;;;11.8;54.5
57374;BME280;43964;53.890;25.340;2023-03-23T00:28:52;1016.7;;;11.9;54.5
57374;BME280;43964;53.890;25.340;2023-03-23T00:33:42;1016.7;;;11.9;54.5
57374;BME280;43964;53.890;25.340;2023-03-23T00:39:20;1016.7;;;11.9;54.5
57374;BME280;43964;53.890;25.340;2023-03-23T00:44:09;1016.6;;;11.8;54.5
57374;BME280;43964;53.890;25.340;2023-03-23T00:49:28;1016.6;;;11.8;54.5
57374;BME280;43964;53.890;25.340;2023-03-23T00:54:09;1016.6;;;11.8;54.6
57374;BME280;43964;53.890;25.340;2023-03-23T00:58:42;1016.5;;;11.7;54.5
57374;BME280;43964;53.890;25.340;2023-03-23T01:04:32;1016.5;;;11.7;54.8
57374;BME280;43964;53.890;25.340;2023-03-23T01:09:09;1016.5;;;11.7;54.8
57374;BME280;43964;53.890;25.340;2023-03-23T01:14:31;1016.4;;;11.7;54.9
57374;BME280;43964;53.890;25.340;2023-03-23T01:19:08;1016.4;;;11.8;54.8
57374;BME280;43964;53.890;25.340;2023-03-23T01:23:43;1016.3;;;11.9;54.7
57374;BME280;43964;53.890;25.340;2023-03-23T01:29:22;1016.3;;;11.9;54.7
57374;BME280;43964;53.890;25.340;2023-03-23T01:34:10;1016.2;;;12;54.6
57374;BME280;43964;53.890;25.340;2023-03-23T01:39:32;1016.2;;;12;54.5
57374;BME280;43964;53.890;25.340;2023-03-23T01:45:17;1016.1;;;11.9;54.7
57374;BME280;43964;53.890;25.340;2023-03-23T01:48:42;1016.1;;;12;54.6
57374;BME280;43964;53.890;25.340;2023-03-23T01:54:21;1016.1;;;11.9;54.8
57374;BME280;43964;53.890;25.340;2023-03-23T01:59:08;1016.1;;;11.9;55
57374;BME280;43964;53.890;25.340;2023-03-23T02:04:32;1016.1;;;11.9;55
57374;BME280;43964;53.890;25.340;2023-03-23T02:09:08;1016.1;;;12;55
57374;BME280;43964;53.890;25.340;2023-03-23T02:13:43;1016;;;12;55
57374;BME280;43964;53.890;25.340;2023-03-23T02:19:19;1015.9;;;11.9;55
57374;BME280;43964;53.890;25.340;2023-03-23T02:24:21;1015.8;;;11.9;55.1
57374;BME280;43964;53.890;25.340;2023-03-23T02:29:44;1015.8;;;11.9;55.1
57374;BME280;43964;53.890;25.340;2023-03-23T02:34:21;1015.7;;;11.9;55.1
57374;BME280;43964;53.890;25.340;2023-03-23T02:39:00;1015.6;;;11.8;55
57374;BME280;43964;53.890;25.340;2023-03-23T02:44:01;1015.6;;;11.8;55.1
57374;BME280;43964;53.890;25.340;2023-03-23T02:49:11;1015.5;;;11.8;55.3
57374;BME280;43964;53.890;25.340;2023-03-23T02:54:32;1015.5;;;11.8;55.4
57374;BME280;43964;53.890;25.340;2023-03-23T02:58:58;1015.5;;;11.8;55.4
57374;BME280;43964;53.890;25.340;2023-03-23T03:03:52;1015.4;;;11.7;55.4
57374;BME280;43964;53.890;25.340;2023-03-23T03:09:22;1015.4;;;11.7;55.4
57374;BME280;43964;53.890;25.340;2023-03-23T03:13:50;1015.3;;;11.7;55.4
57374;BME280;43964;53.890;25.340;2023-03-23T03:19:27;1015.3;;;11.7;55.4
57374;BME280;43964;53.890;25.340;2023-03-23T03:24:11;1015.2;;;11.6;55.4
57374;BME280;43964;53.890;25.340;2023-03-23T03:28:43;1015.1;;;11.5;55.5
57374;BME280;43964;53.890;25.340;2023-03-23T03:34:18;1015.1;;;11.5;55.6
57374;BME280;43964;53.890;25.340;2023-03-23T03:38:52;1015.1;;;11.5;55.7
57374;BME280;43964;53.890;25.340;2023-03-23T03:44:26;1015.1;;;11.5;55.7
57374;BME280;43964;53.890;25.340;2023-03-23T03:49:09;1015.1;;;11.5;55.7
57374;BME280;43964;53.890;25.340;2023-03-23T03:53:42;1015.1;;;11.6;55.7
57374;BME280;43964;53.890;25.340;2023-03-23T03:59:23;1015.1;;;11.6;55.7
57374;BME280;43964;53.890;25.340;2023-03-23T04:03:43;1015;;;11.6;55.6
57374;BME280;43964;53.890;25.340;2023-03-23T04:09:30;1015;;;11.7;55.6
57374;BME280;43964;53.890;25.340;2023-03-23T04:13:42;1015;;;11.7;55.6
57374;BME280;43964;53.890;25.340;2023-03-23T04:18:53;1015;;;11.6;55.7
57374;BME280;43964;53.890;25.340;2023-03-23T04:24:21;1015;;;11.5;56
57374;BME280;43964;53.890;25.340;2023-03-23T04:29:10;1015;;;11.5;56
57374;BME280;43964;53.890;25.340;2023-03-23T04:34:30;1015;;;11.4;56.1
57374;BME280;43964;53.890;25.340;2023-03-23T04:39:08;1015;;;11.4;56.3
57374;BME280;43964;53.890;25.340;2023-03-23T04:43:42;1015;;;11.4;56.5
57374;BME280;43964;53.890;25.340;2023-03-23T04:49:16;1015;;;11.4;56.3
57374;BME280;43964;53.890;25.340;2023-03-23T04:54:01;1015;;;11.4;56.6
57374;BME280;43964;53.890;25.340;2023-03-23T04:59:29;1014.9;;;11.4;56.7
57374;BME280;43964;53.890;25.340;2023-03-23T05:04:21;1015;;;11.5;56.6
57374;BME280;43964;53.890;25.340;2023-03-23T05:08:42;1015;;;11.6;56.5
57374;BME280;43964;53.890;25.340;2023-03-23T05:14:21;1015;;;11.6;56.5
57374;BME280;43964;53.890;25.340;2023-03-23T05:19:29;1015;;;11.6;56.5
57374;BME280;43964;53.890;25.340;2023-03-23T05:24:29;1015.1;;;11.7;56.4
57374;BME280;43964;53.890;25.340;2023-03-23T05:29:11;1015;;;11.7;56.4
57374;BME280;43964;53.890;25.340;2023-03-23T05:33:52;1015;;;11.7;56.3
57374;BME280;43964;53.890;25.340;2023-03-23T05:39:09;1015;;;11.6;56.6
57374;BME280;43964;53.890;25.340;2023-03-23T05:43:53;1015;;;11.7;56.5
57374;BME280;43964;53.890;25.340;2023-03-23T05:49:31;1014.9;;;11.8;56.4
57374;BME280;43964;53.890;25.340;2023-03-23T05:54:11;1015;;;12.1;56.2
57374;BME280;43964;53.890;25.340;2023-03-23T05:58:49;1015;;;12.1;56.1
57374;BME280;43964;53.890;25.340;2023-03-23T06:04:21;1014.9;;;12.3;55.9
57374;BME280;43964;53.890;25.340;2023-03-23T06:08:43;1014.8;;;12.5;55.7
57374;BME280;43964;53.890;25.340;2023-03-23T06:14:29;1014.8;;;12.5;55.5
57374;BME280;43964;53.890;25.340;2023-03-23T06:19:31;1014.7;;;12.6;55.5
57374;BME280;43964;53.890;25.340;2023-03-23T06:23:43;1014.7;;;12.8;55.3
57374;BME280;43964;53.890;25.340;2023-03-23T06:29:07;1014.6;;;12.9;55.2
57374;BME280;43964;53.890;25.340;2023-03-23T06:34:29;1014.5;;;13.2;54.9
57374;BME280;43964;53.890;25.340;2023-03-23T06:39:29;1014.6;;;13.5;54.7
57374;BME280;43964;53.890;25.340;2023-03-23T06:43:59;1014.6;;;13.7;54.5
57374;BME280;43964;53.890;25.340;2023-03-23T06:48:53;1014.5;;;13.9;54.3
57374;BME280;43964;53.890;25.340;2023-03-23T06:54:09;1014.5;;;14.1;53.9
57374;BME280;43964;53.890;25.340;2023-03-23T06:58:43;1014.5;;;14.1;53.8
57374;BME280;43964;53.890;25.340;2023-03-23T07:04:13;1014.5;;;14.2;53.6
57374;BME280;43964;53.890;25.340;2023-03-23T07:09:11;1014.4;;;14.2;53.4
57374;BME280;43964;53.890;25.340;2023-03-23T07:13:53;1014.3;;;14.2;53.3
57374;BME280;43964;53.890;25.340;2023-03-23T07:19:19;1014.3;;;14.3;53.1
57374;BME280;43964;53.890;25.340;2023-03-23T07:23:53;1014.4;;;14.4;52.9
57374;BME280;43964;53.890;25.340;2023-03-23T07:29:31;1014.4;;;14.3;53
57374;BME280;43964;53.890;25.340;2023-03-23T07:33:59;1014.4;;;14.5;52.8
57374;BME280;43964;53.890;25.340;2023-03-23T07:39:13;1014.2;;;14.6;52.6
57374;BME280;43964;53.890;25.340;2023-03-23T07:43:55;1014.1;;;14.8;52.4
57374;BME280;43964;53.890;25.340;2023-03-23T07:48:53;1014.1;;;15.1;52.2
57374;BME280;43964;53.890;25.340;2023-03-23T07:54:31;1014;;;15.5;51.8
57374;BME280;43964;53.890;25.340;2023-03-23T07:59:11;1014;;;15.8;51.4
57374;BME280;43964;53.890;25.340;2023-03-23T08:03:43;1013.9;;;16.3;51.1
57374;BME280;43964;53.890;25.340;2023-03-23T08:09:21;1013.9;;;16.8;50.5
57374;BME280;43964;53.890;25.340;2023-03-23T08:13:43;1013.9;;;17.3;49.9
57374;BME280;43964;53.890;25.340;2023-03-23T08:19:29;1013.8;;;17.7;49.5
57374;BME280;43964;53.890;25.340;2023-03-23T08:24:11;1013.8;;;18;48.8
57374;BME280;43964;53.890;25.340;2023-03-23T08:29:05;1013.7;;;18.2;48.1
57374;BME280;43964;53.890;25.340;2023-03-23T08:34:31;1013.7;;;18.6;47.3
57374;BME280;43964;53.890;25.340;2023-03-23T08:38:43;1013.6;;;18.9;46.8
57374;BME280;43964;53.890;25.340;2023-03-23T08:44:27;1013.6;;;19.3;46.2
57374;BME280;43964;53.890;25.340;2023-03-23T08:48:53;1013.6;;;19.7;45.8
57374;BME280;43964;53.890;25.340;2023-03-23T08:53:53;1013.5;;;19.8;44.9
57374;BME280;43964;53.890;25.340;2023-03-23T08:59:19;1013.4;;;20;43.8
57374;BME280;43964;53.890;25.340;2023-03-23T09:04:01;1013.4;;;19.8;43.4
57374;BME280;43964;53.890;25.340;2023-03-23T09:09:27;1013.4;;;19.8;44.4
57374;BME280;43964;53.890;25.340;2023-03-23T09:13:55;1013.4;;;19.7;43.7
57374;BME280;43964;53.890;25.340;2023-03-23T09:19:09;1013.4;;;19.5;44.1
57374;BME280;43964;53.890;25.340;2023-03-23T09:23:45;1013.3;;;19.3;43.9
57374;BME280;43964;53.890;25.340;2023-03-23T09:28:43;1013.2;;;19.2;43.9
57374;BME280;43964;53.890;25.340;2023-03-23T09:34:11;1013.1;;;19.3;43.9
57374;BME280;43964;53.890;25.340;2023-03-23T09:39:09;1013;;;19.4;43.8
57374;BME280;43964;53.890;25.340;2023-03-23T09:44:02;1013;;;19.3;43.7
57374;BME280;43964;53.890;25.340;2023-03-23T09:49:21;1012.9;;;19.4;43.7
57374;BME280;43964;53.890;25.340;2023-03-23T09:53:44;1012.9;;;19.8;43.6
57374;BME280;43964;53.890;25.340;2023-03-23T09:59:29;1012.8;;;19.8;43.4
57374;BME280;43964;53.890;25.340;2023-03-23T10:03:43;1012.7;;;19.9;43.6
57374;BME280;43964;53.890;25.340;2023-03-23T10:08:44;1012.7;;;19.8;43.6
57374;BME280;43964;53.890;25.340;2023-03-23T10:14:25;1012.6;;;19.9;43.5
57374;BME280;43964;53.890;25.340;2023-03-23T10:19:02;1012.7;;;19.8;43.3
57374;BME280;43964;53.890;25.340;2023-03-23T10:24:34;1012.7;;;19.8;43.3
57374;BME280;43964;53.890;25.340;2023-03-23T10:28:59;1012.7;;;19.8;43.5
57374;BME280;43964;53.890;25.340;2023-03-23T10:34:04;1012.6;;;19.7;43.5
57374;BME280;43964;53.890;25.340;2023-03-23T10:39:10;1012.6;;;19.7;43.5
57374;BME280;43964;53.890;25.340;2023-03-23T10:44:09;1012.6;;;19.6;43.6
57374;BME280;43964;53.890;25.340;2023-03-23T10:49:06;1012.5;;;19.7;43.6
57374;BME280;43964;53.890;25.340;2023-03-23T10:54:11;1012.6;;;19.6;43.7
57374;BME280;43964;53.890;25.340;2023-03-23T10:59:10;1012.7;;;19.8;43.6
57374;BME280;43964;53.890;25.340;2023-03-23T11:04:23;1012.7;;;19.8;43.5
57374;BME280;43964;53.890;25.340;2023-03-23T11:09:36;1012.6;;;20;43.4
57374;BME280;43964;53.890;25.340;2023-03-23T11:14:34;1012.5;;;20.4;43
57374;BME280;43964;53.890;25.340;2023-03-23T11:19:12;1012.6;;;20.7;42.2
57374;BME280;43964;53.890;25.340;2023-03-23T11:23:46;1012.5;;;20.9;41.6
57374;BME280;43964;53.890;25.340;2023-03-23T11:29:31;1012.4;;;20.8;40.2
57374;BME280;43964;53.890;25.340;2023-03-23T11:33:55;1012.4;;;20.4;40.1
57374;BME280;43964;53.890;25.340;2023-03-23T11:39:31;1012.5;;;20.2;40.9
57374;BME280;43964;53.890;25.340;2023-03-23T11:44:11;1012.5;;;20.2;41
57374;BME280;43964;53.890;25.340;2023-03-23T11:48:54;1012.4;;;20.3;41
57374;BME280;43964;53.890;25.340;2023-03-23T11:54:15;1012.4;;;20.3;40.8
57374;BME280;43964;53.890;25.340;2023-03-23T11:58:43;1012.4;;;20.3;40.9
57374;BME280;43964;53.890;25.340;2023-03-23T12:04:44;1012.2;;;20.2;41.1
57374;BME280;43964;53.890;25.340;2023-03-23T12:09:10;1012.1;;;20.1;41.2
57374;BME280;43964;53.890;25.340;2023-03-23T12:14:15;1012;;;20.1;41.2
57374;BME280;43964;53.890;25.340;2023-03-23T12:19:33;1011.9;;;20.1;41.2
57374;BME280;43964;53.890;25.340;2023-03-23T12:23:55;1011.8;;;20.1;41.1
57374;BME280;43964;53.890;25.340;2023-03-23T12:29:18;1011.7;;;20.1;41
57374;BME280;43964;53.890;25.340;2023-03-23T12:33:54;1011.6;;;20.1;40.8
57374;BME280;43964;53.890;25.340;2023-03-23T12:39:29;1011.5;;;20.1;40.2
57374;BME280;43964;53.890;25.340;2023-03-23T12:44:35;1011.4;;;20.2;40.3
57374;BME280;43964;53.890;25.340;2023-03-23T12:49:31;1011.4;;;20.3;40.2
57374;BME280;43964;53.890;25.340;2023-03-23T12:54:15;1011.4;;;20.5;39.8
57374;BME280;43964;53.890;25.340;2023-03-23T12:59:12;1011.3;;;20.5;39.1
57374;BME280;43964;53.890;25.340;2023-03-23T13:04:14;1011.3;;;20.4;38.9
57374;BME280;43964;53.890;25.340;2023-03-23T13:09:36;1011.3;;;20.5;38.7
57374;BME280;43964;53.890;25.340;2023-03-23T13:13:54;1011.2;;;20.5;38.6
57374;BME280;43964;53.890;25.340;2023-03-23T13:19:14;1011.1;;;20.3;38.7
57374;BME280;43964;53.890;25.340;2023-03-23T13:24:12;1011;;;20.3;38.6
57374;BME280;43964;53.890;25.340;2023-03-23T13:29:05;1011;;;20.1;38.4
57374;BME280;43964;53.890;25.340;2023-03-23T13:34:35;1011;;;19.8;38.5
57374;BME280;43964;53.890;25.340;2023-03-23T13:38:45;1011;;;19.6;38.9
57374;BME280;43964;53.890;25.340;2023-03-23T13:44:16;1011;;;19.5;39.3
57374;BME280;43964;53.890;25.340;2023-03-23T13:48:43;1011;;;19.4;39.5
57374;BME280;43964;53.890;25.340;2023-03-23T13:54:39;1011;;;19.4;39.5
57374;BME280;43964;53.890;25.340;2023-03-23T13:59:16;1010.9;;;19.3;39.6
57374;BME280;43964;53.890;25.340;2023-03-23T14:03:53;1010.9;;;19.3;39.7
57374;BME280;43964;53.890;25.340;2023-03-23T14:08:55;1010.8;;;19.3;39.7
57374;BME280;43964;53.890;25.340;2023-03-23T14:13:44;1010.7;;;19.3;39.8
57374;BME280;43964;53.890;25.340;2023-03-23T14:19:16;1010.7;;;19.4;39.8
57374;BME280;43964;53.890;25.340;2023-03-23T14:24:31;1010.6;;;19.5;39.8
57374;BME280;43964;53.890;25.340;2023-03-23T14:28:43;1010.6;;;19.4;39.8
57374;BME280;43964;53.890;25.340;2023-03-23T14:34:14;1010.8;;;19.4;39.8
57374;BME280;43964;53.890;25.340;2023-03-23T14:39:02;1010.7;;;19.4;39.9
57374;BME280;43964;53.890;25.340;2023-03-23T14:44:14;1010.8;;;19.1;39.9
57374;BME280;43964;53.890;25.340;2023-03-23T14:49:35;1010.8;;;18.9;40.1
57374;BME280;43964;53.890;25.340;2023-03-23T14:53:43;1010.8;;;18.7;40.4
57374;BME280;43964;53.890;25.340;2023-03-23T14:59:33;1010.7;;;18.6;40.5
57374;BME280;43964;53.890;25.340;2023-03-23T15:04:02;1010.7;;;18.5;40.6
57374;BME280;43964;53.890;25.340;2023-03-23T15:09:17;1010.7;;;18.5;40.6
57374;BME280;43964;53.890;25.340;2023-03-23T15:14:37;1010.6;;;18.4;40.6
57374;BME280;43964;53.890;25.340;2023-03-23T15:18:53;1010.6;;;18.3;40.7
57374;BME280;43964;53.890;25.340;2023-03-23T15:24:19;1010.7;;;18.2;40.9
57374;BME280;43964;53.890;25.340;2023-03-23T15:29:33;1010.7;;;18;41.2
57374;BME280;43964;53.890;25.340;2023-03-23T15:34:16;1010.8;;;18;41.5
57374;BME280;43964;53.890;25.340;2023-03-23T15:39:40;1010.7;;;18;41.5
57374;BME280;43964;53.890;25.340;2023-03-23T15:43:48;1010.7;;;18;41.5
57374;BME280;43964;53.890;25.340;2023-03-23T15:49:15;1010.7;;;17.9;41.5
57374;BME280;43964;53.890;25.340;2023-03-23T15:54:14;1010.7;;;17.9;41.5
57374;BME280;43964;53.890;25.340;2023-03-23T15:58:56;1010.7;;;17.8;41.6
57374;BME280;43964;53.890;25.340;2023-03-23T16:04:35;1010.7;;;17.8;41.8
57374;BME280;43964;53.890;25.340;2023-03-23T16:08:43;1010.7;;;17.7;42
57374;BME280;43964;53.890;25.340;2023-03-23T16:14:13;1010.7;;;17.6;42.2
57374;BME280;43964;53.890;25.340;2023-03-23T16:19:15;1010.7;;;17.6;42.3
57374;BME280;43964;53.890;25.340;2023-03-23T16:24:33;1010.9;;;17.5;42.4
57374;BME280;43964;53.890;25.340;2023-03-23T16:28:43;1010.9;;;17.5;42.6
57374;BME280;43964;53.890;25.340;2023-03-23T16:33:53;1010.9;;;17.4;42.9
57374;BME280;43964;53.890;25.340;2023-03-23T16:39:25;1011;;;17.4;43.3
57374;BME280;43964;53.890;25.340;2023-03-23T16:44:21;1011;;;17.4;43.5
57374;BME280;43964;53.890;25.340;2023-03-23T16:49:37;1011.1;;;17.3;43.8
57374;BME280;43964;53.890;25.340;2023-03-23T16:54:05;1011.2;;;17.3;44.1
57374;BME280;43964;53.890;25.340;2023-03-23T16:59:07;1011.3;;;17.2;44.6
57374;BME280;43964;53.890;25.340;2023-03-23T17:04:31;1011.4;;;17.1;44.9
57374;BME280;43964;53.890;25.340;2023-03-23T17:09:19;1011.6;;;16.9;45.1
57374;BME280;43964;53.890;25.340;2023-03-23T17:14:21;1011.7;;;16.7;46.2
57374;BME280;43964;53.890;25.340;2023-03-23T17:19:03;1011.8;;;16.5;47.4
57374;BME280;43964;53.890;25.340;2023-03-23T17:23:43;1011.9;;;16.2;47.8
57374;BME280;43964;53.890;25.340;2023-03-23T17:29:05;1012;;;16;48.4
57374;BME280;43964;53.890;25.340;2023-03-23T17:34:15;1012;;;15.7;49
57374;BME280;43964;53.890;25.340;2023-03-23T17:39:31;1012.1;;;15.6;49.4
57374;BME280;43964;53.890;25.340;2023-03-23T17:44:07;1012.2;;;15.5;49.9
57374;BME280;43964;53.890;25.340;2023-03-23T17:49:07;1012.2;;;15.5;50.5
57374;BME280;43964;53.890;25.340;2023-03-23T17:53:53;1012.3;;;15.3;51.9
57374;BME280;43964;53.890;25.340;2023-03-23T17:59:17;1012.3;;;15.2;52.8
57374;BME280;43964;53.890;25.340;2023-03-23T18:04:33;1012.3;;;15;52.5
57374;BME280;43964;53.890;25.340;2023-03-23T18:09:07;1012.3;;;14.7;52.8
57374;BME280;43964;53.890;25.340;2023-03-23T18:13:43;1012.3;;;14.5;53.8
57374;BME280;43964;53.890;25.340;2023-03-23T18:19:07;1012.3;;;14.3;55.6
57374;BME280;43964;53.890;25.340;2023-03-23T18:23:57;1012.4;;;14.2;56.6
57374;BME280;43964;53.890;25.340;2023-03-23T18:29:33;1012.4;;;14.2;56.8
57374;BME280;43964;53.890;25.340;2023-03-23T18:33:53;1012.4;;;14.3;57
57374;BME280;43964;53.890;25.340;2023-03-23T18:38:43;1012.5;;;14.3;57.2
57374;BME280;43964;53.890;25.340;2023-03-23T18:43:43;1012.4;;;14.3;57.6
57374;BME280;43964;53.890;25.340;2023-03-23T18:49:19;1012.4;;;14.4;58
57374;BME280;43964;53.890;25.340;2023-03-23T18:54:33;1012.4;;;14.3;58.1
57374;BME280;43964;53.890;25.340;2023-03-23T18:59:11;1012.4;;;14.3;58
57374;BME280;43964;53.890;25.340;2023-03-23T19:03:43;1012.5;;;14.3;58.1
57374;BME280;43964;53.890;25.340;2023-03-23T19:09:07;1012.5;;;14.3;58.2
57374;BME280;43964;53.890;25.340;2023-03-23T19:14:17;1012.5;;;14.3;58.3
57374;BME280;43964;53.890;25.340;2023-03-23T19:19:31;1012.5;;;14.2;58.4
57374;BME280;43964;53.890;25.340;2023-03-23T19:24:07;1012.5;;;14.2;58.9
57374;BME280;43964;53.890;25.340;2023-03-23T19:28:55;1012.5;;;14.1;59.5
57374;BME280;43964;53.890;25.340;2023-03-23T19:34:07;1012.5;;;14.1;59.8
57374;BME280;43964;53.890;25.340;2023-03-23T19:39:19;1012.6;;;14.1;60
57374;BME280;43964;53.890;25.340;2023-03-23T19:44:33;1012.7;;;14.1;60.2
57374;BME280;43964;53.890;25.340;2023-03-23T19:49:21;1012.7;;;14.1;60.2
57374;BME280;43964;53.890;25.340;2023-03-23T19:53:55;1012.7;;;14;59.9
57374;BME280;43964;53.890;25.340;2023-03-23T19:58:53;1012.7;;;13.9;60.6
57374;BME280;43964;53.890;25.340;2023-03-23T20:04:19;1012.7;;;13.9;60.9
57374;BME280;43964;53.890;25.340;2023-03-23T20:09:17;1012.7;;;13.8;60.6
57374;BME280;43964;53.890;25.340;2023-03-23T20:14:23;1012.8;;;13.6;61.4
57374;BME280;43964;53.890;25.340;2023-03-23T20:18:43;1012.8;;;13.6;61
57374;BME280;43964;53.890;25.340;2023-03-23T20:24:21;1012.8;;;13.6;61
57374;BME280;43964;53.890;25.340;2023-03-23T20:29:17;1012.8;;;13.5;61.4
57374;BME280;43964;53.890;25.340;2023-03-23T20:34:33;1012.7;;;13.4;61.9
57374;BME280;43964;53.890;25.340;2023-03-23T20:39:16;1012.7;;;13.4;61.7
57374;BME280;43964;53.890;25.340;2023-03-23T20:43:43;1012.6;;;13.3;61.6
57374;BME280;43964;53.890;25.340;2023-03-23T20:48:43;1012.6;;;13.3;62.3
57374;BME280;43964;53.890;25.340;2023-03-23T20:54:17;1012.7;;;13.4;62.3
57374;BME280;43964;53.890;25.340;2023-03-23T20:59:31;1012.7;;;13.4;62
57374;BME280;43964;53.890;25.340;2023-03-23T21:04:16;1012.7;;;13.4;62.4
57374;BME280;43964;53.890;25.340;2023-03-23T21:09:05;1012.6;;;13.5;62.2
57374;BME280;43964;53.890;25.340;2023-03-23T21:13:55;1012.6;;;13.6;62.1
57374;BME280;43964;53.890;25.340;2023-03-23T21:19:31;1012.7;;;13.6;62.1
57374;BME280;43964;53.890;25.340;2023-03-23T21:24:31;1012.6;;;13.5;62.2
57374;BME280;43964;53.890;25.340;2023-03-23T21:29:17;1012.6;;;13.5;62.3
57374;BME280;43964;53.890;25.340;2023-03-23T21:33:56;1012.6;;;13.3;63
57374;BME280;43964;53.890;25.340;2023-03-23T21:39:07;1012.6;;;13.2;63
57374;BME280;43964;53.890;25.340;2023-03-23T21:44:07;1012.5;;;13.1;63
57374;BME280;43964;53.890;25.340;2023-03-23T21:49:33;1012.6;;;12.9;63.2
57374;BME280;43964;53.890;25.340;2023-03-23T21:54:11;1012.6;;;12.8;63.4
57374;BME280;43964;53.890;25.340;2023-03-23T21:59:03;1012.5;;;12.8;63.6
57374;BME280;43964;53.890;25.340;2023-03-23T22:04:05;1012.4;;;12.8;64
57374;BME280;43964;53.890;25.340;2023-03-23T22:09:17;1012.4;;;12.8;64.3
57374;BME280;43964;53.890;25.340;2023-03-23T22:14:33;1012.4;;;12.7;64
57374;BME280;43964;53.890;25.340;2023-03-23T22:19:21;1012.3;;;12.7;64.2
57374;BME280;43964;53.890;25.340;2023-03-23T22:23:43;1012.3;;;12.7;64.2
57374;BME280;43964;53.890;25.340;2023-03-23T22:28:55;1012.3;;;12.4;65
57374;BME280;43964;53.890;25.340;2023-03-23T22:34:17;1012.3;;;12.5;65.2
57374;BME280;43964;53.890;25.340;2023-03-23T22:39:33;1012.3;;;12.6;65.3
57374;BME280;43964;53.890;25.340;2023-03-23T22:44:14;1012.4;;;12.6;65
57374;BME280;43964;53.890;25.340;2023-03-23T22:48:55;1012.5;;;12.6;64.9
57374;BME280;43964;53.890;25.340;2023-03-23T22:53:43;1012.5;;;12.7;65
57374;BME280;43964;53.890;25.340;2023-03-23T22:59:17;1012.5;;;12.7;65.3
57374;BME280;43964;53.890;25.340;2023-03-23T23:04:33;1012.5;;;12.7;65.4
57374;BME280;43964;53.890;25.340;2023-03-23T23:08:46;1012.5;;;12.7;65.5
57374;BME280;43964;53.890;25.340;2023-03-23T23:13:43;1012.4;;;12.7;65.6
57374;BME280;43964;53.890;25.340;2023-03-23T23:18:55;1012.4;;;12.6;65.2
57374;BME280;43964;53.890;25.340;2023-03-23T23:24:21;1012.3;;;12.5;65.4
57374;BME280;43964;53.890;25.340;2023-03-23T23:29:33;1012.4;;;12.4;65.2
57374;BME280;43964;53.890;25.340;2023-03-23T23:34:33;1012.4;;;12.4;65.7
57374;BME280;43964;53.890;25.340;2023-03-23T23:38:53;1012.4;;;12.5;66
57374;BME280;43964;53.890;25.340;2023-03-23T23:43:53;1012.4;;;12.5;66
57374;BME280;43964;53.890;25.340;2023-03-23T23:49:21;1012.4;;;12.6;66
57374;BME280;43964;53.890;25.340;2023-03-23T23:54:35;1012.4;;;12.6;66
57374;BME280;43964;53.890;25.340;2023-03-23T23:59:21;1012.5;;;12.6;65.7
